sensor_id;sensor_type;location;lat;lon;timestamp;pressure;altitude;pressure_sealevel;temperature;humidity
78149;BME280;67396;42.664;23.382;2023-02-01T00:00:34;95036.81;;;0.11;70.99
78149;BME280;67396;42.664;23.382;2023-02-01T00:03:00;95028.59;;;0.07;70.79
78149;BME280;67396;42.664;23.382;2023-02-01T00:05:29;95035.41;;;0.05;70.94
78149;BME280;67396;42.664;23.382;2023-02-01T00:07:54;95036.81;;;0.11;70.88
78149;BME280;67396;42.664;23.382;2023-02-01T00:10:19;95034.28;;;0.23;70.25
78149;BME280;67396;42.664;23.382;2023-02-01T00:12:45;95038.91;;;0.22;70.47
78149;BME280;67396;42.664;23.382;2023-02-01T00:15:10;95028.72;;;0.19;70.43
78149;BME280;67396;42.664;23.382;2023-02-01T00:17:36;95031.91;;;0.21;70.35
78149;BME280;67396;42.664;23.382;2023-02-01T00:20:02;95030.50;;;0.15;70.36
78149;BME280;67396;42.664;23.382;2023-02-01T00:22:28;95025.88;;;0.24;70.06
78149;BME280;67396;42.664;23.382;2023-02-01T00:24:59;95030.81;;;0.14;70.16
78149;BME280;67396;42.664;23.382;2023-02-01T00:27:28;95033.97;;;0.07;70.34
78149;BME280;67396;42.664;23.382;2023-02-01T00:30:02;95014.28;;;0.07;70.00
78149;BME280;67396;42.664;23.382;2023-02-01T00:32:57;95013.50;;;0.06;69.40
78149;BME280;67396;42.664;23.382;2023-02-01T00:35:22;95020.50;;;0.07;69.43
78149;BME280;67396;42.664;23.382;2023-02-01T00:37:53;95024.13;;;0.03;69.92
78149;BME280;67396;42.664;23.382;2023-02-01T00:40:19;95016.19;;;-0.03;69.76
78149;BME280;67396;42.664;23.382;2023-02-01T00:42:44;95013.19;;;-0.01;69.34
78149;BME280;67396;42.664;23.382;2023-02-01T00:45:10;95004.13;;;0.04;69.51
78149;BME280;67396;42.664;23.382;2023-02-01T00:47:37;95002.84;;;0.01;68.13
78149;BME280;67396;42.664;23.382;2023-02-01T00:50:06;95005.88;;;0.08;68.17
78149;BME280;67396;42.664;23.382;2023-02-01T00:52:31;95008.25;;;0.10;67.27
78149;BME280;67396;42.664;23.382;2023-02-01T00:54:57;95007.44;;;0.09;66.65
78149;BME280;67396;42.664;23.382;2023-02-01T00:57:22;95006.50;;;0.05;66.35
78149;BME280;67396;42.664;23.382;2023-02-01T00:59:48;95002.41;;;0.08;66.44
78149;BME280;67396;42.664;23.382;2023-02-01T01:02:13;94999.03;;;0.02;66.82
78149;BME280;67396;42.664;23.382;2023-02-01T01:04:39;94992.06;;;-0.08;66.48
78149;BME280;67396;42.664;23.382;2023-02-01T01:07:04;94996.34;;;0.02;66.35
78149;BME280;67396;42.664;23.382;2023-02-01T01:09:30;95003.97;;;0.00;65.60
78149;BME280;67396;42.664;23.382;2023-02-01T01:11:55;94993.03;;;0.05;66.12
78149;BME280;67396;42.664;23.382;2023-02-01T01:14:20;95002.84;;;0.10;66.03
78149;BME280;67396;42.664;23.382;2023-02-01T01:16:46;95000.50;;;0.08;65.21
78149;BME280;67396;42.664;23.382;2023-02-01T01:19:11;95001.44;;;0.12;65.10
78149;BME280;67396;42.664;23.382;2023-02-01T01:21:39;94998.91;;;0.07;65.52
78149;BME280;67396;42.664;23.382;2023-02-01T01:24:04;94997.44;;;0.01;65.11
78149;BME280;67396;42.664;23.382;2023-02-01T01:26:30;95002.84;;;0.01;64.94
78149;BME280;67396;42.664;23.382;2023-02-01T01:28:56;94996.81;;;0.13;65.14
78149;BME280;67396;42.664;23.382;2023-02-01T01:31:23;94997.00;;;-0.01;64.90
78149;BME280;67396;42.664;23.382;2023-02-01T01:33:54;95001.75;;;0.02;64.54
78149;BME280;67396;42.664;23.382;2023-02-01T01:36:20;94999.34;;;0.09;64.10
78149;BME280;67396;42.664;23.382;2023-02-01T01:38:45;95005.22;;;0.03;63.57
78149;BME280;67396;42.664;23.382;2023-02-01T01:41:22;95011.13;;;0.05;63.51
78149;BME280;67396;42.664;23.382;2023-02-01T01:44:06;95011.13;;;0.13;63.22
78149;BME280;67396;42.664;23.382;2023-02-01T01:46:36;95016.03;;;0.11;63.17
78149;BME280;67396;42.664;23.382;2023-02-01T01:49:15;95015.41;;;0.14;62.62
78149;BME280;67396;42.664;23.382;2023-02-01T01:51:55;95017.31;;;0.14;62.55
78149;BME280;67396;42.664;23.382;2023-02-01T01:54:32;95011.44;;;0.12;62.51
78149;BME280;67396;42.664;23.382;2023-02-01T01:57:04;95006.34;;;0.27;61.81
78149;BME280;67396;42.664;23.382;2023-02-01T01:59:32;95005.22;;;0.11;62.34
78149;BME280;67396;42.664;23.382;2023-02-01T02:02:00;95014.28;;;-0.02;62.31
78149;BME280;67396;42.664;23.382;2023-02-01T02:04:26;95016.03;;;-0.06;62.56
78149;BME280;67396;42.664;23.382;2023-02-01T02:06:59;95009.69;;;-0.10;62.70
78149;BME280;67396;42.664;23.382;2023-02-01T02:09:25;95006.81;;;-0.22;63.53
78149;BME280;67396;42.664;23.382;2023-02-01T02:11:51;95013.78;;;-0.21;63.06
78149;BME280;67396;42.664;23.382;2023-02-01T02:14:19;95005.38;;;-0.28;63.26
78149;BME280;67396;42.664;23.382;2023-02-01T02:24:53;94982.16;;;-0.55;64.58
78149;BME280;67396;42.664;23.382;2023-02-01T02:27:51;94990.28;;;-0.47;63.88
78149;BME280;67396;42.664;23.382;2023-02-01T02:36:10;94998.19;;;-0.42;63.30
78149;BME280;67396;42.664;23.382;2023-02-01T02:44:28;94998.97;;;-0.50;63.19
78149;BME280;67396;42.664;23.382;2023-02-01T02:47:40;95006.16;;;-0.36;63.45
78149;BME280;67396;42.664;23.382;2023-02-01T02:50:30;94997.88;;;-0.40;63.36
78149;BME280;67396;42.664;23.382;2023-02-01T02:53:18;94995.66;;;-0.47;64.00
78149;BME280;67396;42.664;23.382;2023-02-01T02:56:06;94996.75;;;-0.48;64.34
78149;BME280;67396;42.664;23.382;2023-02-01T02:58:52;94997.25;;;-0.37;63.53
78149;BME280;67396;42.664;23.382;2023-02-01T03:01:38;95001.38;;;-0.40;63.75
78149;BME280;67396;42.664;23.382;2023-02-01T03:04:23;94989.28;;;-0.51;63.95
78149;BME280;67396;42.664;23.382;2023-02-01T03:06:51;94998.19;;;-0.50;63.89
78149;BME280;67396;42.664;23.382;2023-02-01T03:09:37;95005.03;;;-0.44;63.52
78149;BME280;67396;42.664;23.382;2023-02-01T03:12:09;95008.97;;;-0.42;63.18
78149;BME280;67396;42.664;23.382;2023-02-01T03:15:08;95007.38;;;-0.43;62.85
78149;BME280;67396;42.664;23.382;2023-02-01T03:17:42;95014.88;;;-0.40;62.97
78149;BME280;67396;42.664;23.382;2023-02-01T03:20:10;95016.28;;;-0.33;62.04
78149;BME280;67396;42.664;23.382;2023-02-01T03:22:40;95020.28;;;-0.22;61.98
78149;BME280;67396;42.664;23.382;2023-02-01T03:25:15;95015.19;;;-0.24;62.05
78149;BME280;67396;42.664;23.382;2023-02-01T03:28:10;95020.91;;;-0.17;61.74
78149;BME280;67396;42.664;23.382;2023-02-01T03:30:44;95027.91;;;-0.16;61.34
78149;BME280;67396;42.664;23.382;2023-02-01T03:33:15;95035.56;;;-0.09;61.34
78149;BME280;67396;42.664;23.382;2023-02-01T03:36:05;95028.88;;;-0.20;61.42
78149;BME280;67396;42.664;23.382;2023-02-01T03:44:02;95033.94;;;-0.27;61.91
78149;BME280;67396;42.664;23.382;2023-02-01T03:46:38;95031.25;;;-0.27;61.80
78149;BME280;67396;42.664;23.382;2023-02-01T03:49:10;95022.50;;;-0.24;61.57
78149;BME280;67396;42.664;23.382;2023-02-01T03:51:39;95026.81;;;-0.06;61.21
78149;BME280;67396;42.664;23.382;2023-02-01T03:54:07;95025.38;;;-0.04;60.97
78149;BME280;67396;42.664;23.382;2023-02-01T03:56:37;95032.53;;;0.01;61.21
78149;BME280;67396;42.664;23.382;2023-02-01T03:59:03;95038.88;;;-0.04;60.98
78149;BME280;67396;42.664;23.382;2023-02-01T04:01:29;95027.28;;;-0.13;61.28
78149;BME280;67396;42.664;23.382;2023-02-01T04:03:56;95026.81;;;-0.06;61.33
78149;BME280;67396;42.664;23.382;2023-02-01T04:06:23;95030.31;;;0.03;61.08
78149;BME280;67396;42.664;23.382;2023-02-01T04:08:49;95025.88;;;-0.10;61.08
78149;BME280;67396;42.664;23.382;2023-02-01T04:11:15;95021.56;;;-0.20;61.83
78149;BME280;67396;42.664;23.382;2023-02-01T04:13:40;95014.88;;;-0.22;61.61
78149;BME280;67396;42.664;23.382;2023-02-01T04:16:06;95009.97;;;-0.20;61.43
78149;BME280;67396;42.664;23.382;2023-02-01T04:18:31;95021.72;;;-0.16;62.05
78149;BME280;67396;42.664;23.382;2023-02-01T04:20:58;95017.44;;;-0.17;61.54
78149;BME280;67396;42.664;23.382;2023-02-01T04:23:23;95021.56;;;-0.11;61.99
78149;BME280;67396;42.664;23.382;2023-02-01T04:25:48;95020.47;;;-0.10;62.05
78149;BME280;67396;42.664;23.382;2023-02-01T04:28:14;95018.88;;;-0.11;62.42
78149;BME280;67396;42.664;23.382;2023-02-01T04:30:39;95024.28;;;-0.11;63.09
78149;BME280;67396;42.664;23.382;2023-02-01T04:33:05;95033.63;;;-0.09;62.75
78149;BME280;67396;42.664;23.382;2023-02-01T04:35:31;95025.22;;;-0.07;62.82
78149;BME280;67396;42.664;23.382;2023-02-01T04:37:56;95031.59;;;-0.03;63.39
78149;BME280;67396;42.664;23.382;2023-02-01T04:40:21;95035.88;;;-0.02;62.91
78149;BME280;67396;42.664;23.382;2023-02-01T04:42:47;95016.19;;;0.06;62.76
78149;BME280;67396;42.664;23.382;2023-02-01T04:45:12;95020.50;;;0.07;62.82
78149;BME280;67396;42.664;23.382;2023-02-01T04:47:38;95029.69;;;0.06;63.26
78149;BME280;67396;42.664;23.382;2023-02-01T04:50:03;95023.63;;;0.09;63.05
78149;BME280;67396;42.664;23.382;2023-02-01T04:52:31;95031.91;;;0.13;63.56
78149;BME280;67396;42.664;23.382;2023-02-01T04:54:56;95033.00;;;0.12;63.53
78149;BME280;67396;42.664;23.382;2023-02-01T04:57:24;95033.81;;;0.12;63.16
78149;BME280;67396;42.664;23.382;2023-02-01T04:59:49;95030.00;;;0.13;63.90
78149;BME280;67396;42.664;23.382;2023-02-01T05:02:15;95041.09;;;0.03;64.21
78149;BME280;67396;42.664;23.382;2023-02-01T05:04:40;95033.50;;;0.05;64.68
78149;BME280;67396;42.664;23.382;2023-02-01T05:07:05;95044.91;;;0.19;63.83
78149;BME280;67396;42.664;23.382;2023-02-01T05:09:31;95045.41;;;0.13;64.46
78149;BME280;67396;42.664;23.382;2023-02-01T05:11:56;95053.50;;;0.04;65.30
78149;BME280;67396;42.664;23.382;2023-02-01T05:14:40;95061.09;;;0.02;65.51
78149;BME280;67396;42.664;23.382;2023-02-01T05:17:06;95070.16;;;0.06;64.99
78149;BME280;67396;42.664;23.382;2023-02-01T05:19:31;95070.00;;;0.11;65.23
78149;BME280;67396;42.664;23.382;2023-02-01T05:21:56;95070.47;;;0.05;65.85
78149;BME280;67396;42.664;23.382;2023-02-01T05:24:22;95064.91;;;0.01;65.43
78149;BME280;67396;42.664;23.382;2023-02-01T05:26:47;95064.91;;;0.10;65.33
78149;BME280;67396;42.664;23.382;2023-02-01T05:29:14;95057.28;;;0.03;66.36
78149;BME280;67396;42.664;23.382;2023-02-01T05:31:40;95054.78;;;0.15;65.82
78149;BME280;67396;42.664;23.382;2023-02-01T05:34:06;95059.69;;;0.22;65.23
78149;BME280;67396;42.664;23.382;2023-02-01T05:36:31;95073.19;;;0.30;65.25
78149;BME280;67396;42.664;23.382;2023-02-01T05:38:57;95062.56;;;0.34;65.38
78149;BME280;67396;42.664;23.382;2023-02-01T05:41:22;95071.91;;;0.36;64.97
78149;BME280;67396;42.664;23.382;2023-02-01T05:43:47;95059.53;;;0.35;64.93
78149;BME280;67396;42.664;23.382;2023-02-01T05:46:13;95073.19;;;0.30;65.16
78149;BME280;67396;42.664;23.382;2023-02-01T05:48:39;95062.22;;;0.27;65.27
78149;BME280;67396;42.664;23.382;2023-02-01T05:51:05;95067.50;;;0.32;64.68
78149;BME280;67396;42.664;23.382;2023-02-01T05:53:30;95073.81;;;0.36;64.74
78149;BME280;67396;42.664;23.382;2023-02-01T05:55:55;95056.53;;;0.37;64.73
78149;BME280;67396;42.664;23.382;2023-02-01T05:58:21;95062.41;;;0.30;65.04
78149;BME280;67396;42.664;23.382;2023-02-01T06:00:46;95057.97;;;0.34;64.56
78149;BME280;67396;42.664;23.382;2023-02-01T06:03:12;95069.88;;;0.42;64.49
78149;BME280;67396;42.664;23.382;2023-02-01T06:05:55;95069.22;;;0.45;64.17
78149;BME280;67396;42.664;23.382;2023-02-01T06:08:24;95064.97;;;0.53;64.07
78149;BME280;67396;42.664;23.382;2023-02-01T06:10:50;95075.09;;;0.56;63.55
78149;BME280;67396;42.664;23.382;2023-02-01T06:13:17;95084.47;;;0.58;63.55
78149;BME280;67396;42.664;23.382;2023-02-01T06:15:42;95068.59;;;0.65;62.91
78149;BME280;67396;42.664;23.382;2023-02-01T06:18:09;95067.63;;;0.79;62.35
78149;BME280;67396;42.664;23.382;2023-02-01T06:20:34;95071.75;;;0.76;62.25
78149;BME280;67396;42.664;23.382;2023-02-01T06:23:00;95079.88;;;0.76;62.68
78149;BME280;67396;42.664;23.382;2023-02-01T06:25:25;95074.28;;;0.72;62.51
78149;BME280;67396;42.664;23.382;2023-02-01T06:27:50;95067.94;;;0.77;62.23
78149;BME280;67396;42.664;23.382;2023-02-01T06:30:16;95081.75;;;0.84;61.83
78149;BME280;67396;42.664;23.382;2023-02-01T06:32:41;95068.88;;;0.90;62.08
78149;BME280;67396;42.664;23.382;2023-02-01T06:35:08;95073.97;;;0.83;61.90
78149;BME280;67396;42.664;23.382;2023-02-01T06:37:37;95077.16;;;0.85;61.81
78149;BME280;67396;42.664;23.382;2023-02-01T06:40:03;95067.25;;;0.97;61.27
78149;BME280;67396;42.664;23.382;2023-02-01T06:42:28;95075.22;;;1.02;61.27
78149;BME280;67396;42.664;23.382;2023-02-01T06:44:54;95083.94;;;0.99;60.78
78149;BME280;67396;42.664;23.382;2023-02-01T06:47:19;95082.69;;;1.05;60.76
78149;BME280;67396;42.664;23.382;2023-02-01T06:49:44;95085.69;;;1.12;60.46
78149;BME280;67396;42.664;23.382;2023-02-01T06:52:10;95090.78;;;1.14;60.24
78149;BME280;67396;42.664;23.382;2023-02-01T06:54:35;95092.97;;;1.21;59.95
78149;BME280;67396;42.664;23.382;2023-02-01T06:57:02;95102.81;;;1.25;60.22
78149;BME280;67396;42.664;23.382;2023-02-01T06:59:31;95093.47;;;1.23;59.81
78149;BME280;67396;42.664;23.382;2023-02-01T07:01:56;95095.69;;;1.21;60.03
78149;BME280;67396;42.664;23.382;2023-02-01T07:04:22;95090.56;;;1.28;59.33
78149;BME280;67396;42.664;23.382;2023-02-01T07:06:47;95117.94;;;1.18;60.15
78149;BME280;67396;42.664;23.382;2023-02-01T07:09:12;95107.75;;;1.14;60.09
78149;BME280;67396;42.664;23.382;2023-02-01T07:11:41;95121.63;;;1.13;60.70
78149;BME280;67396;42.664;23.382;2023-02-01T07:14:09;95111.75;;;1.08;59.98
78149;BME280;67396;42.664;23.382;2023-02-01T07:16:35;95114.75;;;1.16;60.08
78149;BME280;67396;42.664;23.382;2023-02-01T07:19:00;95115.09;;;1.23;59.79
78149;BME280;67396;42.664;23.382;2023-02-01T07:21:26;95118.41;;;1.28;59.90
78149;BME280;67396;42.664;23.382;2023-02-01T07:23:53;95126.50;;;1.28;59.03
78149;BME280;67396;42.664;23.382;2023-02-01T07:26:18;95129.69;;;1.39;58.73
78149;BME280;67396;42.664;23.382;2023-02-01T07:28:44;95129.84;;;1.34;58.71
78149;BME280;67396;42.664;23.382;2023-02-01T07:31:19;95133.66;;;1.33;59.15
78149;BME280;67396;42.664;23.382;2023-02-01T07:33:50;95130.81;;;1.29;59.30
78149;BME280;67396;42.664;23.382;2023-02-01T07:36:20;95132.84;;;1.32;59.21
78149;BME280;67396;42.664;23.382;2023-02-01T07:38:46;95134.28;;;1.38;58.70
78149;BME280;67396;42.664;23.382;2023-02-01T07:41:16;95138.44;;;1.36;58.70
78149;BME280;67396;42.664;23.382;2023-02-01T07:43:42;95135.22;;;1.42;58.88
78149;BME280;67396;42.664;23.382;2023-02-01T07:46:10;95141.91;;;1.45;58.33
78149;BME280;67396;42.664;23.382;2023-02-01T07:48:35;95146.03;;;1.42;58.26
78149;BME280;67396;42.664;23.382;2023-02-01T07:51:14;95151.13;;;1.44;58.28
78149;BME280;67396;42.664;23.382;2023-02-01T07:53:40;95155.91;;;1.47;57.72
78149;BME280;67396;42.664;23.382;2023-02-01T07:56:12;95141.72;;;1.50;58.51
78149;BME280;67396;42.664;23.382;2023-02-01T07:58:38;95153.00;;;1.52;58.40
78149;BME280;67396;42.664;23.382;2023-02-01T08:01:04;95157.31;;;1.53;58.25
78149;BME280;67396;42.664;23.382;2023-02-01T08:03:45;95162.09;;;1.56;57.79
78149;BME280;67396;42.664;23.382;2023-02-01T08:06:14;95166.03;;;1.59;57.54
78149;BME280;67396;42.664;23.382;2023-02-01T08:08:42;95169.09;;;1.57;57.69
78149;BME280;67396;42.664;23.382;2023-02-01T08:11:10;95166.50;;;1.69;57.65
78149;BME280;67396;42.664;23.382;2023-02-01T08:13:36;95169.50;;;1.68;57.94
78149;BME280;67396;42.664;23.382;2023-02-01T08:16:19;95168.63;;;2.02;59.92
78149;BME280;67396;42.664;23.382;2023-02-01T08:18:54;95166.06;;;2.55;56.85
78149;BME280;67396;42.664;23.382;2023-02-01T08:21:23;95155.06;;;2.31;55.63
78149;BME280;67396;42.664;23.382;2023-02-01T08:23:52;95150.03;;;2.21;55.61
78149;BME280;67396;42.664;23.382;2023-02-01T08:26:22;95161.81;;;2.25;55.49
78149;BME280;67396;42.664;23.382;2023-02-01T08:28:56;95151.69;;;2.05;55.69
78149;BME280;67396;42.664;23.382;2023-02-01T08:31:30;95164.00;;;1.94;56.60
78149;BME280;67396;42.664;23.382;2023-02-01T08:34:13;95156.25;;;1.28;58.50
78149;BME280;67396;42.664;23.382;2023-02-01T08:36:39;95173.13;;;1.08;59.38
78149;BME280;67396;42.664;23.382;2023-02-01T08:39:05;95165.81;;;1.17;58.36
78149;BME280;67396;42.664;23.382;2023-02-01T08:41:34;95165.47;;;1.27;57.55
78149;BME280;67396;42.664;23.382;2023-02-01T08:44:03;95163.75;;;1.23;57.71
78149;BME280;67396;42.664;23.382;2023-02-01T08:46:33;95163.41;;;1.16;58.27
78149;BME280;67396;42.664;23.382;2023-02-01T08:49:08;95163.28;;;1.12;59.29
78149;BME280;67396;42.664;23.382;2023-02-01T08:54:15;95169.47;;;1.30;58.77
78149;BME280;67396;42.664;23.382;2023-02-01T08:56:48;95160.84;;;1.45;58.35
78149;BME280;67396;42.664;23.382;2023-02-01T08:59:14;95167.13;;;1.75;57.34
78149;BME280;67396;42.664;23.382;2023-02-01T09:01:48;95155.53;;;2.04;56.30
78149;BME280;67396;42.664;23.382;2023-02-01T09:04:16;95153.84;;;2.20;55.96
78149;BME280;67396;42.664;23.382;2023-02-01T09:06:44;95164.47;;;2.34;54.92
78149;BME280;67396;42.664;23.382;2023-02-01T09:09:10;95160.63;;;2.35;54.33
78149;BME280;67396;42.664;23.382;2023-02-01T09:11:35;95156.38;;;2.25;54.24
78149;BME280;67396;42.664;23.382;2023-02-01T09:14:00;95163.16;;;2.10;55.18
78149;BME280;67396;42.664;23.382;2023-02-01T09:16:29;95170.66;;;2.05;55.53
78149;BME280;67396;42.664;23.382;2023-02-01T09:18:55;95176.63;;;1.89;56.55
78149;BME280;67396;42.664;23.382;2023-02-01T09:21:20;95173.06;;;1.98;56.05
78149;BME280;67396;42.664;23.382;2023-02-01T09:23:46;95174.00;;;2.10;55.31
78149;BME280;67396;42.664;23.382;2023-02-01T09:26:14;95181.72;;;2.20;55.42
78149;BME280;67396;42.664;23.382;2023-02-01T09:28:39;95172.44;;;2.30;55.03
78149;BME280;67396;42.664;23.382;2023-02-01T09:31:05;95167.44;;;2.41;54.89
78149;BME280;67396;42.664;23.382;2023-02-01T09:36:51;95161.44;;;2.35;55.89
78149;BME280;67396;42.664;23.382;2023-02-01T09:39:17;95158.94;;;2.51;55.75
78149;BME280;67396;42.664;23.382;2023-02-01T09:47:53;95148.66;;;2.86;54.31
78149;BME280;67396;42.664;23.382;2023-02-01T09:50:28;95159.09;;;2.96;52.94
78149;BME280;67396;42.664;23.382;2023-02-01T09:55:42;95146.25;;;3.05;52.31
78149;BME280;67396;42.664;23.382;2023-02-01T10:01:03;95136.25;;;3.18;53.25
78149;BME280;67396;42.664;23.382;2023-02-01T10:03:35;95134.06;;;3.32;51.73
78149;BME280;67396;42.664;23.382;2023-02-01T10:11:42;95124.78;;;3.33;51.26
78149;BME280;67396;42.664;23.382;2023-02-01T10:25:47;95100.72;;;3.44;50.88
78149;BME280;67396;42.664;23.382;2023-02-01T10:28:18;95087.94;;;3.44;50.54
78149;BME280;67396;42.664;23.382;2023-02-01T10:30:48;95088.06;;;3.48;50.32
78149;BME280;67396;42.664;23.382;2023-02-01T10:33:49;95092.56;;;3.44;50.76
78149;BME280;67396;42.664;23.382;2023-02-01T10:36:22;95077.69;;;3.62;49.90
78149;BME280;67396;42.664;23.382;2023-02-01T10:38:48;95069.22;;;3.63;49.14
78149;BME280;67396;42.664;23.382;2023-02-01T10:41:15;95082.22;;;3.58;50.00
78149;BME280;67396;42.664;23.382;2023-02-01T10:43:50;95077.69;;;3.62;50.04
78149;BME280;67396;42.664;23.382;2023-02-01T10:46:35;95077.25;;;3.60;50.02
78149;BME280;67396;42.664;23.382;2023-02-01T10:49:04;95069.91;;;3.60;50.44
78149;BME280;67396;42.664;23.382;2023-02-01T10:51:58;95069.53;;;3.62;49.37
78149;BME280;67396;42.664;23.382;2023-02-01T10:54:38;95070.94;;;3.68;49.63
78149;BME280;67396;42.664;23.382;2023-02-01T10:57:25;95069.53;;;3.62;50.03
78149;BME280;67396;42.664;23.382;2023-02-01T10:59:53;95070.66;;;3.61;50.11
78149;BME280;67396;42.664;23.382;2023-02-01T11:02:28;95075.91;;;3.78;49.79
78149;BME280;67396;42.664;23.382;2023-02-01T11:05:09;95057.69;;;3.91;48.86
78149;BME280;67396;42.664;23.382;2023-02-01T11:07:38;95066.16;;;3.89;49.85
78149;BME280;67396;42.664;23.382;2023-02-01T11:10:05;95057.25;;;4.13;48.60
78149;BME280;67396;42.664;23.382;2023-02-01T11:12:38;95080.84;;;4.37;48.31
78149;BME280;67396;42.664;23.382;2023-02-01T11:15:13;95075.44;;;4.37;47.43
78149;BME280;67396;42.664;23.382;2023-02-01T11:17:43;95068.31;;;4.20;48.41
78149;BME280;67396;42.664;23.382;2023-02-01T11:22:46;95068.22;;;3.92;48.39
78149;BME280;67396;42.664;23.382;2023-02-01T11:25:14;95049.66;;;3.82;48.43
78149;BME280;67396;42.664;23.382;2023-02-01T11:27:41;95054.41;;;3.97;48.08
78149;BME280;67396;42.664;23.382;2023-02-01T11:30:41;95042.28;;;4.07;47.79
78149;BME280;67396;42.664;23.382;2023-02-01T11:33:15;95040.38;;;4.07;47.69
78149;BME280;67396;42.664;23.382;2023-02-01T11:35:42;95053.59;;;4.21;48.23
78149;BME280;67396;42.664;23.382;2023-02-01T11:38:20;95046.13;;;4.30;47.50
78149;BME280;67396;42.664;23.382;2023-02-01T11:40:49;95043.75;;;4.29;47.32
78149;BME280;67396;42.664;23.382;2023-02-01T11:46:00;95051.75;;;4.37;46.84
78149;BME280;67396;42.664;23.382;2023-02-01T11:48:29;95043.16;;;4.23;46.96
78149;BME280;67396;42.664;23.382;2023-02-01T11:56:34;95024.81;;;4.32;47.19
78149;BME280;67396;42.664;23.382;2023-02-01T12:04:42;95007.44;;;4.49;46.76
78149;BME280;67396;42.664;23.382;2023-02-01T12:10:07;95009.28;;;4.45;46.65
78149;BME280;67396;42.664;23.382;2023-02-01T12:16:10;95023.19;;;4.56;46.84
78149;BME280;67396;42.664;23.382;2023-02-01T12:32:24;94991.06;;;4.33;47.61
78149;BME280;67396;42.664;23.382;2023-02-01T12:34:56;95008.63;;;4.36;47.81
78149;BME280;67396;42.664;23.382;2023-02-01T12:40:26;95006.28;;;4.62;47.19
78149;BME280;67396;42.664;23.382;2023-02-01T12:46:12;95012.66;;;4.54;47.64
78149;BME280;67396;42.664;23.382;2023-02-01T12:51:15;95007.84;;;4.63;48.01
78149;BME280;67396;42.664;23.382;2023-02-01T12:53:55;95012.25;;;4.68;47.37
78149;BME280;67396;42.664;23.382;2023-02-01T12:56:39;95000.00;;;4.74;46.74
78149;BME280;67396;42.664;23.382;2023-02-01T12:59:27;95025.28;;;4.74;46.58
78149;BME280;67396;42.664;23.382;2023-02-01T13:02:01;95007.38;;;4.73;45.19
78149;BME280;67396;42.664;23.382;2023-02-01T13:04:32;95004.00;;;4.64;46.12
78149;BME280;67396;42.664;23.382;2023-02-01T13:07:14;95009.28;;;4.73;46.38
78149;BME280;67396;42.664;23.382;2023-02-01T13:09:47;95011.59;;;4.86;45.78
78149;BME280;67396;42.664;23.382;2023-02-01T13:12:25;94996.22;;;4.78;46.20
78149;BME280;67396;42.664;23.382;2023-02-01T13:15:03;95004.84;;;4.80;45.55
78149;BME280;67396;42.664;23.382;2023-02-01T13:17:32;95001.22;;;4.76;45.30
78149;BME280;67396;42.664;23.382;2023-02-01T13:22:37;95005.19;;;4.79;44.52
78149;BME280;67396;42.664;23.382;2023-02-01T13:25:17;95015.38;;;4.82;44.89
78149;BME280;67396;42.664;23.382;2023-02-01T13:27:43;95008.84;;;4.71;44.24
78149;BME280;67396;42.664;23.382;2023-02-01T13:30:15;95005.13;;;4.63;45.07
78149;BME280;67396;42.664;23.382;2023-02-01T13:41:03;95002.72;;;4.74;44.54
78149;BME280;67396;42.664;23.382;2023-02-01T13:43:36;94994.72;;;4.65;44.00
78149;BME280;67396;42.664;23.382;2023-02-01T13:46:06;94999.91;;;4.70;44.38
78149;BME280;67396;42.664;23.382;2023-02-01T13:48:38;94992.41;;;4.67;44.17
78149;BME280;67396;42.664;23.382;2023-02-01T13:51:05;95002.41;;;4.63;44.60
78149;BME280;67396;42.664;23.382;2023-02-01T13:53:34;94997.84;;;4.67;45.15
78149;BME280;67396;42.664;23.382;2023-02-01T13:56:22;94998.44;;;4.73;44.24
78149;BME280;67396;42.664;23.382;2023-02-01T13:58:49;94989.66;;;4.79;44.46
78149;BME280;67396;42.664;23.382;2023-02-01T14:06:38;94987.59;;;5.04;43.96
78149;BME280;67396;42.664;23.382;2023-02-01T14:11:44;95004.19;;;4.99;44.79
78149;BME280;67396;42.664;23.382;2023-02-01T14:19:35;94989.97;;;5.06;44.34
78149;BME280;67396;42.664;23.382;2023-02-01T14:24:54;94980.56;;;4.87;44.54
78149;BME280;67396;42.664;23.382;2023-02-01T14:27:26;94971.72;;;4.90;45.02
78149;BME280;67396;42.664;23.382;2023-02-01T14:30:01;94987.47;;;4.85;44.69
78149;BME280;67396;42.664;23.382;2023-02-01T14:34:58;94961.97;;;4.89;44.96
78149;BME280;67396;42.664;23.382;2023-02-01T14:37:31;94973.88;;;4.85;45.30
78149;BME280;67396;42.664;23.382;2023-02-01T14:40:03;94955.63;;;4.85;45.47
78149;BME280;67396;42.664;23.382;2023-02-01T14:42:43;94959.06;;;4.82;45.03
78149;BME280;67396;42.664;23.382;2023-02-01T14:56:06;94983.59;;;4.70;45.40
78149;BME280;67396;42.664;23.382;2023-02-01T15:04:10;94967.88;;;4.64;46.15
78149;BME280;67396;42.664;23.382;2023-02-01T15:09:28;94973.16;;;4.44;46.73
78149;BME280;67396;42.664;23.382;2023-02-01T15:14:33;94978.72;;;4.36;46.50
78149;BME280;67396;42.664;23.382;2023-02-01T15:16:58;94975.34;;;4.39;46.93
78149;BME280;67396;42.664;23.382;2023-02-01T15:19:27;94980.53;;;4.32;47.20
78149;BME280;67396;42.664;23.382;2023-02-01T15:21:55;94975.09;;;4.32;47.46
78149;BME280;67396;42.664;23.382;2023-02-01T15:24:29;94977.88;;;4.20;47.38
78149;BME280;67396;42.664;23.382;2023-02-01T15:26:58;94981.84;;;4.22;47.32
78149;BME280;67396;42.664;23.382;2023-02-01T15:29:27;94975.69;;;4.25;47.00
78149;BME280;67396;42.664;23.382;2023-02-01T15:31:57;94975.34;;;4.39;46.78
78149;BME280;67396;42.664;23.382;2023-02-01T15:34:23;94975.47;;;4.30;47.41
78149;BME280;67396;42.664;23.382;2023-02-01T15:36:49;94974.31;;;4.31;47.64
78149;BME280;67396;42.664;23.382;2023-02-01T15:39:24;94978.41;;;4.25;47.18
78149;BME280;67396;42.664;23.382;2023-02-01T15:42:00;94973.47;;;4.15;48.14
78149;BME280;67396;42.664;23.382;2023-02-01T15:44:38;94980.59;;;4.20;47.31
78149;BME280;67396;42.664;23.382;2023-02-01T15:47:18;94975.09;;;4.32;46.90
78149;BME280;67396;42.664;23.382;2023-02-01T15:49:51;94978.28;;;4.34;46.00